| |
Missouri Department of Transportation

Social Media Facebook Twitter Flickr Blog YouTube RSS

Current AWOS Information

 
AWOS Home - General Info for all Airports
Current AWOS for all Airports - Current METAR for all Airports
Glossary - Disclaimer - Other Links


HANNIBAL--HANNIBAL REGIONAL--KHAE
 
Recent AWOS History
 
09/02/14     03:56 AM CDT      08:56 GMT
Air Temperature 70°F (21°C ) 1st Cloud Layer Overcast at 500 feet
Dew Point 68°F (20°C) 2nd Cloud Layer  
Barometric Pressure 29.93 in Hg. 3rd Cloud Layer  
Wind Speed 3 mph (3 knots) Density Altitude  
Peak Wind Gusts   Variable Wind Directions  
Wind Direction Quadrant(270°) Variable Visibility  
Visibility 10 statute miles  

Thunderstorm and Precipitation Identification: 
Thunderstorm Remarks: 

Current METAR Record: METAR KHAE 020856Z AUTO 27003KT 10SM OVC005 21/20 A2993 RMK AO2

 

 

 

About Us
How Do I...
Contact Us
Missouri Department of Transportation
Central Office
105 W. Capitol Avenue
Jefferson City, MO 65102
1-888-ASK-MODOT (275-6636)
1-866-831-6277 (Motor Carrier Services)
Drivers License Offices
horz_bar
| | |
Missouri State Government
© 2013 Missouri Department of Transportation. All Rights Reserved.   Privacy Policy.
 
 
 
 
RSS FeedYoutubeBlogFlickrTwitter Facebook